sensor_id;sensor_type;location;lat;lon;timestamp;pressure;altitude;pressure_sealevel;temperature;humidity
3102;BME280;1561;42.666;23.392;2022-07-29T00:00:50;95365.41;;;19.42;100.00
3102;BME280;1561;42.666;23.392;2022-07-29T00:03:43;95360.56;;;19.61;100.00
3102;BME280;1561;42.666;23.392;2022-07-29T00:09:31;95366.19;;;19.42;100.00
3102;BME280;1561;42.666;23.392;2022-07-29T00:12:14;95373.06;;;19.35;100.00
3102;BME280;1561;42.666;23.392;2022-07-29T00:15:01;95392.16;;;19.34;100.00
3102;BME280;1561;42.666;23.392;2022-07-29T00:20:42;95390.16;;;19.14;100.00
3102;BME280;1561;42.666;23.392;2022-07-29T00:26:24;95328.81;;;18.61;100.00
3102;BME280;1561;42.666;23.392;2022-07-29T00:29:09;95396.38;;;19.05;100.00
3102;BME280;1561;42.666;23.392;2022-07-29T00:34:43;95378.31;;;19.19;100.00
3102;BME280;1561;42.666;23.392;2022-07-29T00:37:31;95364.09;;;19.15;100.00
3102;BME280;1561;42.666;23.392;2022-07-29T00:40:28;95376.84;;;19.25;100.00
3102;BME280;1561;42.666;23.392;2022-07-29T00:43:29;95356.31;;;19.15;100.00
3102;BME280;1561;42.666;23.392;2022-07-29T00:46:04;95381.56;;;19.21;100.00
3102;BME280;1561;42.666;23.392;2022-07-29T00:48:36;95360.28;;;19.03;100.00
3102;BME280;1561;42.666;23.392;2022-07-29T00:51:19;95388.25;;;19.08;100.00
3102;BME280;1561;42.666;23.392;2022-07-29T00:54:20;95387.63;;;19.06;100.00
3102;BME280;1561;42.666;23.392;2022-07-29T00:57:13;95386.25;;;18.95;100.00
3102;BME280;1561;42.666;23.392;2022-07-29T01:00:07;95392.16;;;19.04;100.00
3102;BME280;1561;42.666;23.392;2022-07-29T01:02:52;95351.44;;;18.59;100.00
3102;BME280;1561;42.666;23.392;2022-07-29T01:05:51;95379.09;;;18.97;100.00
3102;BME280;1561;42.666;23.392;2022-07-29T01:08:40;95383.09;;;19.08;100.00
3102;BME280;1561;42.666;23.392;2022-07-29T01:11:37;95329.06;;;18.74;100.00
3102;BME280;1561;42.666;23.392;2022-07-29T01:14:21;95228.13;;;18.13;100.00
3102;BME280;1561;42.666;23.392;2022-07-29T01:17:21;95351.47;;;18.90;100.00
3102;BME280;1561;42.666;23.392;2022-07-29T01:19:58;95254.00;;;18.13;100.00
3102;BME280;1561;42.666;23.392;2022-07-29T01:26:27;95338.72;;;18.80;100.00
3102;BME280;1561;42.666;23.392;2022-07-29T01:29:18;95377.56;;;19.11;100.00
3102;BME280;1561;42.666;23.392;2022-07-29T01:32:08;95367.47;;;18.93;100.00
3102;BME280;1561;42.666;23.392;2022-07-29T01:34:46;95389.66;;;18.88;100.00
3102;BME280;1561;42.666;23.392;2022-07-29T01:37:46;95374.22;;;19.02;100.00
3102;BME280;1561;42.666;23.392;2022-07-29T01:40:25;95337.28;;;18.78;100.00
3102;BME280;1561;42.666;23.392;2022-07-29T01:43:18;95383.22;;;19.14;100.00
3102;BME280;1561;42.666;23.392;2022-07-29T01:52:25;95370.00;;;19.01;100.00
3102;BME280;1561;42.666;23.392;2022-07-29T01:55:12;95351.59;;;18.96;100.00
3102;BME280;1561;42.666;23.392;2022-07-29T01:57:53;95356.94;;;18.95;100.00
3102;BME280;1561;42.666;23.392;2022-07-29T02:00:23;95336.16;;;18.50;100.00
3102;BME280;1561;42.666;23.392;2022-07-29T02:03:11;95348.09;;;18.51;100.00
3102;BME280;1561;42.666;23.392;2022-07-29T02:06:03;95325.63;;;18.51;100.00
3102;BME280;1561;42.666;23.392;2022-07-29T02:12:07;95339.38;;;18.82;100.00
3102;BME280;1561;42.666;23.392;2022-07-29T02:14:54;95330.69;;;18.75;100.00
3102;BME280;1561;42.666;23.392;2022-07-29T02:17:50;95308.69;;;18.71;100.00
3102;BME280;1561;42.666;23.392;2022-07-29T02:20:52;95335.03;;;18.75;100.00
3102;BME280;1561;42.666;23.392;2022-07-29T02:23:40;95328.16;;;18.59;100.00
3102;BME280;1561;42.666;23.392;2022-07-29T02:26:15;95345.22;;;18.76;100.00
3102;BME280;1561;42.666;23.392;2022-07-29T02:29:16;95350.03;;;18.87;100.00
3102;BME280;1561;42.666;23.392;2022-07-29T02:31:58;95329.03;;;18.82;100.00
3102;BME280;1561;42.666;23.392;2022-07-29T02:37:51;95347.97;;;19.05;100.00
3102;BME280;1561;42.666;23.392;2022-07-29T02:40:55;95340.50;;;19.10;100.00
3102;BME280;1561;42.666;23.392;2022-07-29T02:43:37;95317.88;;;19.04;100.00
3102;BME280;1561;42.666;23.392;2022-07-29T02:49:52;95326.94;;;19.08;100.00
3102;BME280;1561;42.666;23.392;2022-07-29T02:53:05;95329.72;;;18.99;100.00
3102;BME280;1561;42.666;23.392;2022-07-29T02:55:54;95324.03;;;18.81;100.00
3102;BME280;1561;42.666;23.392;2022-07-29T02:58:53;95312.47;;;18.61;100.00
3102;BME280;1561;42.666;23.392;2022-07-29T03:01:32;95303.44;;;18.57;100.00
3102;BME280;1561;42.666;23.392;2022-07-29T03:04:27;95319.47;;;18.52;100.00
3102;BME280;1561;42.666;23.392;2022-07-29T03:10:45;95289.34;;;18.21;100.00
3102;BME280;1561;42.666;23.392;2022-07-29T03:13:36;95330.69;;;18.45;100.00
3102;BME280;1561;42.666;23.392;2022-07-29T03:16:24;95335.69;;;18.46;100.00
3102;BME280;1561;42.666;23.392;2022-07-29T03:19:10;95318.63;;;18.21;100.00
3102;BME280;1561;42.666;23.392;2022-07-29T03:22:05;95325.13;;;18.01;100.00
3102;BME280;1561;42.666;23.392;2022-07-29T03:27:44;95296.91;;;17.92;100.00
3102;BME280;1561;42.666;23.392;2022-07-29T03:30:40;95343.81;;;18.19;100.00
3102;BME280;1561;42.666;23.392;2022-07-29T03:33:51;95346.25;;;18.21;100.00
3102;BME280;1561;42.666;23.392;2022-07-29T03:36:38;95326.91;;;18.09;100.00
3102;BME280;1561;42.666;23.392;2022-07-29T03:39:35;95306.88;;;17.95;100.00
3102;BME280;1561;42.666;23.392;2022-07-29T03:48:37;95305.41;;;18.08;100.00
3102;BME280;1561;42.666;23.392;2022-07-29T03:52:02;95351.69;;;18.42;100.00
3102;BME280;1561;42.666;23.392;2022-07-29T03:54:44;95315.88;;;18.61;100.00
3102;BME280;1561;42.666;23.392;2022-07-29T03:57:23;95338.13;;;18.78;100.00
3102;BME280;1561;42.666;23.392;2022-07-29T04:00:21;95348.25;;;19.10;100.00
3102;BME280;1561;42.666;23.392;2022-07-29T04:03:02;95346.66;;;19.77;100.00
3102;BME280;1561;42.666;23.392;2022-07-29T04:06:12;95310.59;;;19.96;100.00
3102;BME280;1561;42.666;23.392;2022-07-29T04:08:57;95335.66;;;19.89;100.00
3102;BME280;1561;42.666;23.392;2022-07-29T04:11:57;95320.72;;;19.40;100.00
3102;BME280;1561;42.666;23.392;2022-07-29T04:18:24;95270.59;;;20.84;100.00
3102;BME280;1561;42.666;23.392;2022-07-29T04:24:51;95299.63;;;22.40;100.00
3102;BME280;1561;42.666;23.392;2022-07-29T04:27:31;95310.72;;;21.87;100.00
3102;BME280;1561;42.666;23.392;2022-07-29T04:33:39;95316.66;;;22.02;100.00
3102;BME280;1561;42.666;23.392;2022-07-29T04:36:28;95303.22;;;22.79;100.00
3102;BME280;1561;42.666;23.392;2022-07-29T04:39:07;95302.38;;;23.39;100.00
3102;BME280;1561;42.666;23.392;2022-07-29T04:42:07;95332.09;;;23.97;100.00
3102;BME280;1561;42.666;23.392;2022-07-29T04:45:15;95328.75;;;25.04;100.00
3102;BME280;1561;42.666;23.392;2022-07-29T04:47:56;95324.03;;;24.88;100.00
3102;BME280;1561;42.666;23.392;2022-07-29T04:50:33;95345.00;;;24.75;100.00
3102;BME280;1561;42.666;23.392;2022-07-29T04:53:34;95329.63;;;24.28;100.00
3102;BME280;1561;42.666;23.392;2022-07-29T04:56:17;95329.56;;;24.54;100.00
3102;BME280;1561;42.666;23.392;2022-07-29T04:59:27;95291.78;;;24.50;100.00
3102;BME280;1561;42.666;23.392;2022-07-29T05:01:56;95319.66;;;24.69;100.00
3102;BME280;1561;42.666;23.392;2022-07-29T05:04:45;95331.94;;;25.50;100.00
3102;BME280;1561;42.666;23.392;2022-07-29T05:07:18;95314.81;;;26.63;100.00
3102;BME280;1561;42.666;23.392;2022-07-29T05:09:49;95301.97;;;26.19;100.00
3102;BME280;1561;42.666;23.392;2022-07-29T05:12:24;95348.38;;;26.73;100.00
3102;BME280;1561;42.666;23.392;2022-07-29T05:15:27;95344.88;;;26.61;100.00
3102;BME280;1561;42.666;23.392;2022-07-29T05:18:00;95339.97;;;26.82;100.00
3102;BME280;1561;42.666;23.392;2022-07-29T05:20:53;95353.03;;;27.36;100.00
3102;BME280;1561;42.666;23.392;2022-07-29T05:23:26;95323.72;;;26.92;100.00
3102;BME280;1561;42.666;23.392;2022-07-29T05:25:59;95225.03;;;27.09;100.00
3102;BME280;1561;42.666;23.392;2022-07-29T05:28:36;95353.25;;;27.35;100.00
3102;BME280;1561;42.666;23.392;2022-07-29T05:31:18;95358.66;;;25.83;100.00
3102;BME280;1561;42.666;23.392;2022-07-29T05:33:46;95352.44;;;26.51;100.00
3102;BME280;1561;42.666;23.392;2022-07-29T05:36:30;95362.63;;;26.95;100.00
3102;BME280;1561;42.666;23.392;2022-07-29T05:39:31;95356.31;;;27.32;100.00
3102;BME280;1561;42.666;23.392;2022-07-29T05:42:00;95343.78;;;26.68;100.00
3102;BME280;1561;42.666;23.392;2022-07-29T05:44:30;95264.91;;;26.52;100.00
3102;BME280;1561;42.666;23.392;2022-07-29T05:47:25;95355.31;;;27.74;100.00
3102;BME280;1561;42.666;23.392;2022-07-29T05:50:10;95361.34;;;28.27;95.39
3102;BME280;1561;42.666;23.392;2022-07-29T05:52:39;95333.44;;;28.26;89.66
3102;BME280;1561;42.666;23.392;2022-07-29T05:55:26;95336.19;;;26.78;100.00
3102;BME280;1561;42.666;23.392;2022-07-29T05:57:55;95360.69;;;27.49;100.00
3102;BME280;1561;42.666;23.392;2022-07-29T06:00:32;95356.50;;;27.01;100.00
3102;BME280;1561;42.666;23.392;2022-07-29T06:03:15;95359.56;;;26.62;100.00
3102;BME280;1561;42.666;23.392;2022-07-29T06:05:53;95363.97;;;26.86;100.00
3102;BME280;1561;42.666;23.392;2022-07-29T06:08:26;95349.59;;;26.88;100.00
3102;BME280;1561;42.666;23.392;2022-07-29T06:11:02;95306.25;;;28.55;91.86
3102;BME280;1561;42.666;23.392;2022-07-29T06:13:37;95359.66;;;28.95;92.21
3102;BME280;1561;42.666;23.392;2022-07-29T06:16:11;95358.34;;;28.23;97.51
3102;BME280;1561;42.666;23.392;2022-07-29T06:18:49;95363.22;;;27.56;100.00
3102;BME280;1561;42.666;23.392;2022-07-29T06:21:26;95362.09;;;27.52;100.00
3102;BME280;1561;42.666;23.392;2022-07-29T06:26:46;95364.75;;;28.50;98.67
3102;BME280;1561;42.666;23.392;2022-07-29T06:29:21;95347.44;;;27.74;98.44
3102;BME280;1561;42.666;23.392;2022-07-29T06:31:54;95361.78;;;28.24;98.87
3102;BME280;1561;42.666;23.392;2022-07-29T06:34:39;95360.97;;;29.20;93.72
3102;BME280;1561;42.666;23.392;2022-07-29T06:37:10;95306.22;;;29.95;86.20
3102;BME280;1561;42.666;23.392;2022-07-29T06:39:49;95359.47;;;30.30;80.47
3102;BME280;1561;42.666;23.392;2022-07-29T06:42:41;95308.81;;;29.17;87.61
3102;BME280;1561;42.666;23.392;2022-07-29T06:45:14;95345.09;;;28.64;91.42
3102;BME280;1561;42.666;23.392;2022-07-29T06:47:53;95344.06;;;28.08;94.05
3102;BME280;1561;42.666;23.392;2022-07-29T06:50:36;95350.19;;;28.94;88.68
3102;BME280;1561;42.666;23.392;2022-07-29T06:53:17;95348.88;;;29.36;83.40
3102;BME280;1561;42.666;23.392;2022-07-29T06:55:47;95355.69;;;29.93;80.71
3102;BME280;1561;42.666;23.392;2022-07-29T06:58:25;95352.53;;;30.24;74.74
3102;BME280;1561;42.666;23.392;2022-07-29T07:00:57;95321.59;;;29.70;79.59
3102;BME280;1561;42.666;23.392;2022-07-29T07:03:33;95346.56;;;31.58;71.12
3102;BME280;1561;42.666;23.392;2022-07-29T07:06:10;95329.22;;;31.67;65.73
3102;BME280;1561;42.666;23.392;2022-07-29T07:08:38;95346.34;;;30.90;68.27
3102;BME280;1561;42.666;23.392;2022-07-29T07:11:11;95335.06;;;31.21;67.30
3102;BME280;1561;42.666;23.392;2022-07-29T07:13:50;95328.81;;;29.91;74.00
3102;BME280;1561;42.666;23.392;2022-07-29T07:16:22;95315.13;;;29.94;70.35
3102;BME280;1561;42.666;23.392;2022-07-29T07:18:54;95323.66;;;29.23;75.93
3102;BME280;1561;42.666;23.392;2022-07-29T07:21:46;95333.81;;;30.26;73.13
3102;BME280;1561;42.666;23.392;2022-07-29T07:24:28;95339.88;;;29.60;74.39
3102;BME280;1561;42.666;23.392;2022-07-29T07:26:58;95341.41;;;30.06;70.30
3102;BME280;1561;42.666;23.392;2022-07-29T07:29:25;95340.31;;;30.94;65.24
3102;BME280;1561;42.666;23.392;2022-07-29T07:31:54;95291.00;;;30.19;69.23
3102;BME280;1561;42.666;23.392;2022-07-29T07:34:27;95331.28;;;30.69;69.07
3102;BME280;1561;42.666;23.392;2022-07-29T07:37:05;95333.69;;;30.16;71.05
3102;BME280;1561;42.666;23.392;2022-07-29T07:39:40;95297.75;;;30.48;68.36
3102;BME280;1561;42.666;23.392;2022-07-29T07:42:37;95333.66;;;31.61;62.51
3102;BME280;1561;42.666;23.392;2022-07-29T07:45:09;95324.41;;;30.30;66.79
3102;BME280;1561;42.666;23.392;2022-07-29T07:47:39;95328.06;;;31.58;62.37
3102;BME280;1561;42.666;23.392;2022-07-29T07:50:13;95326.25;;;31.90;59.86
3102;BME280;1561;42.666;23.392;2022-07-29T07:52:49;95315.13;;;31.83;59.83
3102;BME280;1561;42.666;23.392;2022-07-29T07:55:23;95321.91;;;32.10;58.46
3102;BME280;1561;42.666;23.392;2022-07-29T07:57:51;95327.09;;;31.69;60.04
3102;BME280;1561;42.666;23.392;2022-07-29T08:00:19;95323.59;;;31.58;59.13
3102;BME280;1561;42.666;23.392;2022-07-29T08:02:48;95332.13;;;31.39;59.95
3102;BME280;1561;42.666;23.392;2022-07-29T08:05:17;95325.47;;;31.89;57.73
3102;BME280;1561;42.666;23.392;2022-07-29T08:07:49;95331.06;;;31.40;59.29
3102;BME280;1561;42.666;23.392;2022-07-29T08:10:23;95328.16;;;32.31;54.75
3102;BME280;1561;42.666;23.392;2022-07-29T08:13:10;95320.97;;;32.26;55.32
3102;BME280;1561;42.666;23.392;2022-07-29T08:15:57;95328.88;;;33.19;49.50
3102;BME280;1561;42.666;23.392;2022-07-29T08:18:28;95326.47;;;32.15;53.14
3102;BME280;1561;42.666;23.392;2022-07-29T08:21:05;95316.22;;;32.75;51.23
3102;BME280;1561;42.666;23.392;2022-07-29T08:23:50;95315.59;;;33.09;48.64
3102;BME280;1561;42.666;23.392;2022-07-29T08:26:20;95270.41;;;33.51;48.20
3102;BME280;1561;42.666;23.392;2022-07-29T08:28:47;95309.78;;;32.51;53.25
3102;BME280;1561;42.666;23.392;2022-07-29T08:31:17;95304.88;;;33.56;45.28
3102;BME280;1561;42.666;23.392;2022-07-29T08:33:49;95299.81;;;33.44;45.92
3102;BME280;1561;42.666;23.392;2022-07-29T08:36:23;95303.69;;;33.12;45.81
3102;BME280;1561;42.666;23.392;2022-07-29T08:39:06;95305.72;;;32.80;46.30
3102;BME280;1561;42.666;23.392;2022-07-29T08:41:36;95295.44;;;32.93;47.53
3102;BME280;1561;42.666;23.392;2022-07-29T08:44:05;95299.81;;;33.64;45.82
3102;BME280;1561;42.666;23.392;2022-07-29T08:46:32;95304.88;;;33.66;44.82
3102;BME280;1561;42.666;23.392;2022-07-29T08:49:03;95306.56;;;32.95;45.33
3102;BME280;1561;42.666;23.392;2022-07-29T08:51:40;95325.25;;;33.65;43.91
3102;BME280;1561;42.666;23.392;2022-07-29T08:54:11;95318.97;;;34.06;42.66
3102;BME280;1561;42.666;23.392;2022-07-29T08:56:44;95298.41;;;33.22;44.88
3102;BME280;1561;42.666;23.392;2022-07-29T08:59:25;95284.53;;;32.80;43.80
3102;BME280;1561;42.666;23.392;2022-07-29T09:01:54;95292.34;;;33.26;43.88
3102;BME280;1561;42.666;23.392;2022-07-29T09:04:30;95303.28;;;33.60;42.42
3102;BME280;1561;42.666;23.392;2022-07-29T09:07:04;95284.44;;;33.56;42.21
3102;BME280;1561;42.666;23.392;2022-07-29T09:09:39;95291.78;;;33.19;42.28
3102;BME280;1561;42.666;23.392;2022-07-29T09:12:08;95283.44;;;32.76;44.78
3102;BME280;1561;42.666;23.392;2022-07-29T09:14:52;95249.66;;;33.03;43.36
3102;BME280;1561;42.666;23.392;2022-07-29T09:17:41;95284.44;;;33.46;43.00
3102;BME280;1561;42.666;23.392;2022-07-29T09:20:16;95279.59;;;32.52;45.32
3102;BME280;1561;42.666;23.392;2022-07-29T09:22:44;95256.63;;;30.90;51.26
3102;BME280;1561;42.666;23.392;2022-07-29T09:25:31;95301.69;;;30.12;57.83
3102;BME280;1561;42.666;23.392;2022-07-29T09:28:05;95292.66;;;30.41;55.99
3102;BME280;1561;42.666;23.392;2022-07-29T09:30:51;95293.19;;;30.05;58.42
3102;BME280;1561;42.666;23.392;2022-07-29T09:33:32;95304.94;;;30.14;58.25
3102;BME280;1561;42.666;23.392;2022-07-29T09:36:05;95290.22;;;29.85;60.93
3102;BME280;1561;42.666;23.392;2022-07-29T09:38:37;95290.06;;;30.25;59.77
3102;BME280;1561;42.666;23.392;2022-07-29T09:41:09;95286.13;;;31.13;53.59
3102;BME280;1561;42.666;23.392;2022-07-29T09:43:39;95279.66;;;33.38;47.62
3102;BME280;1561;42.666;23.392;2022-07-29T09:46:11;95280.47;;;34.24;43.38
3102;BME280;1561;42.666;23.392;2022-07-29T09:48:41;95287.69;;;34.97;41.52
3102;BME280;1561;42.666;23.392;2022-07-29T09:51:18;95275.41;;;35.11;39.87
3102;BME280;1561;42.666;23.392;2022-07-29T09:53:54;95256.63;;;34.09;42.21
3102;BME280;1561;42.666;23.392;2022-07-29T09:56:40;95262.69;;;34.34;40.74
3102;BME280;1561;42.666;23.392;2022-07-29T09:59:09;95261.66;;;34.00;42.88
3102;BME280;1561;42.666;23.392;2022-07-29T10:01:39;95261.66;;;33.45;41.92
3102;BME280;1561;42.666;23.392;2022-07-29T10:04:10;95251.59;;;33.77;42.17
3102;BME280;1561;42.666;23.392;2022-07-29T10:06:56;95248.31;;;32.34;45.44
3102;BME280;1561;42.666;23.392;2022-07-29T10:09:27;95251.41;;;31.84;48.36
3102;BME280;1561;42.666;23.392;2022-07-29T10:12:24;95233.91;;;32.71;44.39
3102;BME280;1561;42.666;23.392;2022-07-29T10:14:51;95236.16;;;31.96;45.40
3102;BME280;1561;42.666;23.392;2022-07-29T10:17:24;95225.16;;;32.14;47.70
3102;BME280;1561;42.666;23.392;2022-07-29T10:20:07;95237.06;;;32.63;46.40
3102;BME280;1561;42.666;23.392;2022-07-29T10:22:46;95241.72;;;31.95;48.09
3102;BME280;1561;42.666;23.392;2022-07-29T10:25:28;95201.59;;;30.34;47.70
3102;BME280;1561;42.666;23.392;2022-07-29T10:28:02;95243.59;;;30.62;49.89
3102;BME280;1561;42.666;23.392;2022-07-29T10:30:39;95225.97;;;32.15;44.91
3102;BME280;1561;42.666;23.392;2022-07-29T10:39:17;95224.50;;;33.10;44.78
3102;BME280;1561;42.666;23.392;2022-07-29T10:42:06;95221.13;;;33.35;40.14
3102;BME280;1561;42.666;23.392;2022-07-29T10:44:43;95218.38;;;32.28;42.28
3102;BME280;1561;42.666;23.392;2022-07-29T10:47:32;95204.50;;;32.58;42.31
3102;BME280;1561;42.666;23.392;2022-07-29T10:50:06;95203.06;;;33.22;42.71
3102;BME280;1561;42.666;23.392;2022-07-29T10:52:55;95215.63;;;32.65;43.83
3102;BME280;1561;42.666;23.392;2022-07-29T10:55:39;95196.75;;;33.38;41.23
3102;BME280;1561;42.666;23.392;2022-07-29T10:58:15;95192.97;;;33.04;42.07
3102;BME280;1561;42.666;23.392;2022-07-29T11:01:01;95166.94;;;32.61;42.58
3102;BME280;1561;42.666;23.392;2022-07-29T11:07:10;95193.97;;;32.73;44.38
3102;BME280;1561;42.666;23.392;2022-07-29T11:09:44;95133.66;;;32.03;45.36
3102;BME280;1561;42.666;23.392;2022-07-29T11:12:46;95193.97;;;32.73;42.97
3102;BME280;1561;42.666;23.392;2022-07-29T11:15:27;95185.03;;;33.09;42.63
3102;BME280;1561;42.666;23.392;2022-07-29T11:18:06;95172.50;;;32.03;45.56
3102;BME280;1561;42.666;23.392;2022-07-29T11:20:40;95199.25;;;32.78;45.70
3102;BME280;1561;42.666;23.392;2022-07-29T11:23:32;95194.97;;;32.62;44.39
3102;BME280;1561;42.666;23.392;2022-07-29T11:26:18;95181.78;;;32.72;44.51
3102;BME280;1561;42.666;23.392;2022-07-29T11:29:02;95173.19;;;32.40;46.28
3102;BME280;1561;42.666;23.392;2022-07-29T11:31:44;95176.59;;;31.79;47.27
3102;BME280;1561;42.666;23.392;2022-07-29T11:34:26;95158.59;;;31.76;45.88
3102;BME280;1561;42.666;23.392;2022-07-29T11:37:28;95172.41;;;32.34;44.40
3102;BME280;1561;42.666;23.392;2022-07-29T11:40:22;95188.03;;;31.89;45.31
3102;BME280;1561;42.666;23.392;2022-07-29T11:43:10;95176.72;;;32.04;45.20
3102;BME280;1561;42.666;23.392;2022-07-29T11:46:02;95156.84;;;31.91;45.43
3102;BME280;1561;42.666;23.392;2022-07-29T11:48:47;95142.41;;;32.14;44.30
3102;BME280;1561;42.666;23.392;2022-07-29T11:51:17;95175.75;;;31.73;44.96
3102;BME280;1561;42.666;23.392;2022-07-29T11:53:55;95157.31;;;32.30;44.14
3102;BME280;1561;42.666;23.392;2022-07-29T11:56:31;95158.06;;;32.20;44.64
3102;BME280;1561;42.666;23.392;2022-07-29T11:59:08;95138.13;;;31.61;44.85
3102;BME280;1561;42.666;23.392;2022-07-29T12:01:53;95167.72;;;32.00;45.37
3102;BME280;1561;42.666;23.392;2022-07-29T12:04:23;95134.06;;;32.32;44.34
3102;BME280;1561;42.666;23.392;2022-07-29T12:06:55;95160.94;;;32.14;44.09
3102;BME280;1561;42.666;23.392;2022-07-29T12:09:35;95143.16;;;32.04;47.47
3102;BME280;1561;42.666;23.392;2022-07-29T12:12:20;95148.91;;;31.91;45.82
3102;BME280;1561;42.666;23.392;2022-07-29T12:15:10;95142.03;;;31.90;44.71
3102;BME280;1561;42.666;23.392;2022-07-29T12:17:47;95151.28;;;32.54;44.59
3102;BME280;1561;42.666;23.392;2022-07-29T12:20:56;95098.88;;;31.75;45.18
3102;BME280;1561;42.666;23.392;2022-07-29T12:23:36;95097.41;;;31.52;44.74
3102;BME280;1561;42.666;23.392;2022-07-29T12:29:43;95141.50;;;31.93;45.55
3102;BME280;1561;42.666;23.392;2022-07-29T12:32:15;95151.38;;;32.08;45.18
3102;BME280;1561;42.666;23.392;2022-07-29T12:34:45;95133.00;;;32.33;42.98
3102;BME280;1561;42.666;23.392;2022-07-29T12:37:22;95118.47;;;32.50;41.95
3102;BME280;1561;42.666;23.392;2022-07-29T12:40:05;95124.34;;;32.72;41.80
3102;BME280;1561;42.666;23.392;2022-07-29T12:45:34;95143.72;;;32.11;43.83
3102;BME280;1561;42.666;23.392;2022-07-29T12:48:11;95133.50;;;32.35;42.64
3102;BME280;1561;42.666;23.392;2022-07-29T12:50:55;95137.22;;;32.39;42.84
3102;BME280;1561;42.666;23.392;2022-07-29T12:53:25;95135.97;;;32.66;43.37
3102;BME280;1561;42.666;23.392;2022-07-29T12:55:57;95102.91;;;32.59;42.66
3102;BME280;1561;42.666;23.392;2022-07-29T12:58:33;95123.81;;;32.65;42.63
3102;BME280;1561;42.666;23.392;2022-07-29T13:01:13;95123.75;;;32.35;42.78
3102;BME280;1561;42.666;23.392;2022-07-29T13:03:53;95113.50;;;32.69;42.58
3102;BME280;1561;42.666;23.392;2022-07-29T13:06:37;95112.66;;;32.53;42.62
3102;BME280;1561;42.666;23.392;2022-07-29T13:09:10;95121.38;;;32.44;43.99
3102;BME280;1561;42.666;23.392;2022-07-29T13:11:48;95104.66;;;32.28;44.87
3102;BME280;1561;42.666;23.392;2022-07-29T13:14:35;95079.50;;;32.26;43.88
3102;BME280;1561;42.666;23.392;2022-07-29T13:17:23;95108.97;;;32.54;43.11
3102;BME280;1561;42.666;23.392;2022-07-29T13:20:07;95090.63;;;32.18;44.86
3102;BME280;1561;42.666;23.392;2022-07-29T13:22:39;95097.34;;;32.55;43.78
3102;BME280;1561;42.666;23.392;2022-07-29T13:25:22;95082.84;;;31.96;45.05
3102;BME280;1561;42.666;23.392;2022-07-29T13:30:52;95089.59;;;32.34;43.73
3102;BME280;1561;42.666;23.392;2022-07-29T13:33:32;95110.53;;;32.45;45.85
3102;BME280;1561;42.666;23.392;2022-07-29T13:36:05;95088.56;;;32.35;44.39
3102;BME280;1561;42.666;23.392;2022-07-29T13:38:34;95098.94;;;31.90;44.55
3102;BME280;1561;42.666;23.392;2022-07-29T13:41:08;95095.41;;;32.31;44.35
3102;BME280;1561;42.666;23.392;2022-07-29T13:43:36;95090.34;;;32.24;45.46
3102;BME280;1561;42.666;23.392;2022-07-29T13:46:16;95082.59;;;31.93;46.15
3102;BME280;1561;42.666;23.392;2022-07-29T13:48:50;95082.84;;;31.96;46.05
3102;BME280;1561;42.666;23.392;2022-07-29T13:51:22;95083.66;;;31.92;45.50
3102;BME280;1561;42.666;23.392;2022-07-29T13:53:50;95090.78;;;31.50;45.95
3102;BME280;1561;42.666;23.392;2022-07-29T13:56:29;95082.53;;;31.36;46.50
3102;BME280;1561;42.666;23.392;2022-07-29T13:59:02;95078.25;;;31.30;46.88
3102;BME280;1561;42.666;23.392;2022-07-29T14:01:47;95079.13;;;31.41;46.42
3102;BME280;1561;42.666;23.392;2022-07-29T14:04:25;95081.50;;;31.42;47.14
3102;BME280;1561;42.666;23.392;2022-07-29T14:07:10;95073.44;;;31.69;47.70
3102;BME280;1561;42.666;23.392;2022-07-29T14:09:43;95082.44;;;31.68;46.81
3102;BME280;1561;42.666;23.392;2022-07-29T14:12:23;95083.69;;;32.02;45.65
3102;BME280;1561;42.666;23.392;2022-07-29T14:15:07;95080.28;;;32.16;46.20
3102;BME280;1561;42.666;23.392;2022-07-29T14:17:38;95090.69;;;32.38;44.54
3102;BME280;1561;42.666;23.392;2022-07-29T14:20:23;95067.75;;;31.87;45.86
3102;BME280;1561;42.666;23.392;2022-07-29T14:23:22;95085.19;;;31.83;44.68
3102;BME280;1561;42.666;23.392;2022-07-29T14:25:59;95086.31;;;31.50;46.40
3102;BME280;1561;42.666;23.392;2022-07-29T14:28:45;95045.16;;;31.64;46.06
3102;BME280;1561;42.666;23.392;2022-07-29T14:31:33;95086.00;;;31.93;45.10
3102;BME280;1561;42.666;23.392;2022-07-29T14:34:06;95072.28;;;32.01;45.91
3102;BME280;1561;42.666;23.392;2022-07-29T14:36:56;95084.50;;;32.07;45.23
3102;BME280;1561;42.666;23.392;2022-07-29T14:39:35;95076.22;;;31.89;44.27
3102;BME280;1561;42.666;23.392;2022-07-29T14:42:10;95082.38;;;31.53;44.40
3102;BME280;1561;42.666;23.392;2022-07-29T14:44:43;95078.44;;;31.60;44.31
3102;BME280;1561;42.666;23.392;2022-07-29T14:47:13;95072.00;;;31.41;43.54
3102;BME280;1561;42.666;23.392;2022-07-29T14:49:50;95075.13;;;31.33;44.01
3102;BME280;1561;42.666;23.392;2022-07-29T14:52:32;95084.78;;;31.59;42.51
3102;BME280;1561;42.666;23.392;2022-07-29T14:55:03;95088.88;;;31.87;42.39
3102;BME280;1561;42.666;23.392;2022-07-29T14:57:37;95059.25;;;31.28;43.77
3102;BME280;1561;42.666;23.392;2022-07-29T15:00:20;95089.53;;;31.21;44.13
3102;BME280;1561;42.666;23.392;2022-07-29T15:02:57;95084.69;;;31.44;43.42
3102;BME280;1561;42.666;23.392;2022-07-29T15:05:26;95076.66;;;31.71;42.62
3102;BME280;1561;42.666;23.392;2022-07-29T15:08:04;95081.97;;;31.76;41.98
3102;BME280;1561;42.666;23.392;2022-07-29T15:10:39;95077.28;;;31.88;42.27
3102;BME280;1561;42.666;23.392;2022-07-29T15:13:15;95063.81;;;31.89;42.11
3102;BME280;1561;42.666;23.392;2022-07-29T15:15:47;95075.78;;;32.22;42.25
3102;BME280;1561;42.666;23.392;2022-07-29T15:18:23;95068.50;;;31.77;43.55
3102;BME280;1561;42.666;23.392;2022-07-29T15:20:52;94965.16;;;31.17;44.06
3102;BME280;1561;42.666;23.392;2022-07-29T15:23:27;95024.16;;;31.38;43.56
3102;BME280;1561;42.666;23.392;2022-07-29T15:25:57;95064.31;;;31.35;43.69
3102;BME280;1561;42.666;23.392;2022-07-29T15:28:25;95058.44;;;31.28;44.38
3102;BME280;1561;42.666;23.392;2022-07-29T15:31:00;95059.56;;;31.37;44.11
3102;BME280;1561;42.666;23.392;2022-07-29T15:33:42;95044.56;;;31.47;43.99
3102;BME280;1561;42.666;23.392;2022-07-29T15:36:20;95060.13;;;31.44;44.59